createdAt,value
2023-07-03T00:00:31.487Z,14.90
2023-07-03T00:02:58.196Z,14.90
2023-07-03T00:05:25.304Z,14.90
2023-07-03T00:07:52.869Z,14.90
2023-07-03T00:10:22.452Z,14.90
2023-07-03T00:12:49.470Z,15.00
2023-07-03T00:15:16.413Z,14.90
2023-07-03T00:17:45.911Z,14.90
2023-07-03T00:20:15.746Z,14.90
2023-07-03T00:22:43.062Z,14.90
2023-07-03T00:25:10.456Z,14.90
2023-07-03T00:27:37.506Z,14.90
2023-07-03T00:30:04.241Z,14.90
2023-07-03T00:32:31.326Z,14.90
2023-07-03T00:34:58.169Z,14.80
2023-07-03T00:37:25.104Z,14.80
2023-07-03T00:39:51.789Z,14.90
2023-07-03T00:42:18.752Z,14.90
2023-07-03T00:44:45.900Z,14.80
2023-07-03T00:47:13.045Z,14.90
2023-07-03T00:49:40.110Z,14.80
2023-07-03T00:52:06.800Z,14.80
2023-07-03T00:54:33.850Z,14.80
2023-07-03T00:57:00.569Z,14.90
2023-07-03T00:59:27.592Z,14.90
2023-07-03T01:01:54.668Z,14.90
2023-07-03T01:04:21.533Z,14.90
2023-07-03T01:06:48.321Z,14.80
2023-07-03T01:09:15.377Z,14.80
2023-07-03T01:11:42.431Z,14.90
2023-07-03T01:14:09.212Z,14.90
2023-07-03T01:16:36.277Z,14.90
2023-07-03T01:19:03.016Z,14.80
2023-07-03T01:21:29.733Z,14.80
2023-07-03T01:23:56.881Z,14.80
2023-07-03T01:26:23.880Z,14.90
2023-07-03T01:28:50.943Z,14.90
2023-07-03T01:31:17.641Z,14.80
2023-07-03T01:33:46.240Z,14.80
2023-07-03T01:36:13.832Z,14.90
2023-07-03T01:38:40.525Z,14.80
2023-07-03T01:41:07.516Z,14.70
2023-07-03T01:43:34.326Z,14.70
2023-07-03T01:46:01.189Z,14.70
2023-07-03T01:48:28.318Z,14.60
2023-07-03T01:50:55.045Z,14.60
2023-07-03T01:53:21.764Z,14.50
2023-07-03T01:58:16.191Z,14.40
2023-07-03T02:00:42.942Z,14.40
2023-07-03T02:03:11.748Z,14.40
2023-07-03T02:05:39.775Z,14.30
2023-07-03T02:08:06.596Z,14.30
2023-07-03T02:10:33.376Z,14.30
2023-07-03T02:13:00.286Z,14.20
2023-07-03T02:15:27.563Z,14.20
2023-07-03T02:17:55.646Z,14.10
2023-07-03T02:20:22.514Z,14.10
2023-07-03T02:22:49.228Z,14.00
2023-07-03T02:25:17.337Z,14.00
2023-07-03T02:27:44.554Z,14.00
2023-07-03T02:30:11.248Z,13.90
2023-07-03T02:32:38.070Z,13.90
2023-07-03T02:35:05.242Z,13.90
2023-07-03T02:37:31.910Z,13.80
2023-07-03T02:40:00.377Z,13.80
2023-07-03T02:42:27.794Z,13.80
2023-07-03T02:44:54.487Z,13.80
2023-07-03T02:47:21.446Z,13.80
2023-07-03T02:49:48.416Z,13.80
2023-07-03T02:52:15.288Z,13.70
2023-07-03T02:54:42.098Z,13.70
2023-07-03T02:57:08.942Z,13.60
2023-07-03T02:59:35.671Z,13.60
2023-07-03T03:02:02.463Z,13.60
2023-07-03T03:04:29.698Z,13.60
2023-07-03T03:06:56.828Z,13.60
2023-07-03T03:09:24.604Z,13.50
2023-07-03T03:11:51.611Z,13.50
2023-07-03T03:14:18.266Z,13.50
2023-07-03T03:16:45.225Z,13.50
2023-07-03T03:19:12.301Z,13.50
2023-07-03T03:21:39.541Z,13.50
2023-07-03T03:24:06.364Z,13.40
2023-07-03T03:26:33.627Z,13.40
2023-07-03T03:29:00.352Z,13.40
2023-07-03T03:31:27.122Z,13.40
2023-07-03T03:33:54.108Z,13.40
2023-07-03T03:36:21.808Z,13.40
2023-07-03T03:38:49.149Z,13.40
2023-07-03T03:41:16.152Z,13.40
2023-07-03T03:43:42.988Z,13.40
2023-07-03T03:46:09.741Z,13.40
2023-07-03T03:48:36.863Z,13.40
2023-07-03T03:51:04.131Z,13.40
2023-07-03T03:53:30.943Z,13.40
2023-07-03T03:55:57.688Z,13.40
2023-07-03T03:58:24.384Z,13.40
2023-07-03T04:00:52.283Z,13.40
2023-07-03T04:03:19.040Z,13.30
2023-07-03T04:05:45.740Z,13.30
2023-07-03T04:08:12.416Z,13.30
2023-07-03T04:10:39.783Z,13.20
2023-07-03T04:13:06.637Z,13.20
2023-07-03T04:15:33.411Z,13.20
2023-07-03T04:18:00.204Z,13.30
2023-07-03T04:20:28.148Z,13.30
2023-07-03T04:22:55.133Z,13.30
2023-07-03T04:25:22.812Z,13.30
2023-07-03T04:27:49.532Z,13.30
2023-07-03T04:30:17.004Z,13.30
2023-07-03T04:32:44.079Z,13.30
2023-07-03T04:35:10.957Z,13.30
2023-07-03T04:37:38.595Z,13.30
2023-07-03T04:40:06.328Z,13.40
2023-07-03T04:42:33.554Z,13.40
2023-07-03T04:45:03.361Z,13.40
2023-07-03T04:47:30.536Z,13.50
2023-07-03T04:49:59.657Z,13.50
2023-07-03T04:52:28.908Z,13.60
2023-07-03T04:54:56.111Z,13.60
2023-07-03T04:57:22.867Z,13.70
2023-07-03T04:59:50.034Z,13.80
2023-07-03T05:02:19.236Z,13.90
2023-07-03T05:04:46.637Z,14.00
2023-07-03T05:07:13.617Z,14.10
2023-07-03T05:09:40.389Z,14.10
2023-07-03T05:12:07.197Z,14.20
2023-07-03T05:14:36.313Z,14.30
2023-07-03T05:17:03.689Z,14.50
2023-07-03T05:19:30.445Z,14.50
2023-07-03T05:21:57.147Z,14.60
2023-07-03T05:24:23.892Z,14.70
2023-07-03T05:26:50.640Z,14.80
2023-07-03T05:29:17.397Z,14.80
2023-07-03T05:31:45.957Z,14.70
2023-07-03T05:34:12.857Z,14.70
2023-07-03T05:36:39.647Z,14.70
2023-07-03T05:39:06.595Z,14.70
2023-07-03T05:41:33.422Z,14.60
2023-07-03T05:44:00.220Z,14.50
2023-07-03T05:46:27.029Z,14.60
2023-07-03T05:48:53.839Z,14.80
2023-07-03T05:51:20.605Z,15.00
2023-07-03T05:53:47.710Z,15.30
2023-07-03T05:56:14.444Z,15.50
2023-07-03T05:58:41.191Z,15.50
2023-07-03T06:01:08.049Z,15.80
2023-07-03T06:03:35.118Z,15.90
2023-07-03T06:06:01.929Z,16.10
2023-07-03T06:08:28.672Z,16.20
2023-07-03T06:10:55.403Z,16.10
2023-07-03T06:13:22.592Z,16.10
2023-07-03T06:15:49.918Z,16.50
2023-07-03T06:18:16.842Z,16.40
2023-07-03T06:20:43.758Z,16.50
2023-07-03T06:23:10.528Z,16.50
2023-07-03T06:25:37.321Z,16.50
2023-07-03T06:28:04.384Z,16.30
2023-07-03T06:30:31.326Z,16.20
2023-07-03T06:32:58.465Z,16.30
2023-07-03T06:35:25.687Z,16.40
2023-07-03T06:37:53.216Z,16.10
2023-07-03T06:40:20.460Z,16.00
2023-07-03T06:42:47.222Z,16.00
2023-07-03T06:45:13.947Z,16.10
2023-07-03T06:47:40.761Z,16.30
2023-07-03T06:50:07.558Z,16.60
2023-07-03T06:52:34.676Z,16.80
2023-07-03T06:55:01.420Z,17.00
2023-07-03T06:57:28.429Z,17.00
2023-07-03T06:59:55.128Z,17.30
2023-07-03T07:02:22.071Z,17.50
2023-07-03T07:04:49.100Z,17.60
2023-07-03T07:07:16.186Z,17.80
2023-07-03T07:09:42.958Z,17.70
2023-07-03T07:12:09.655Z,17.80
2023-07-03T07:14:36.430Z,17.90
2023-07-03T07:17:03.206Z,18.20
2023-07-03T07:19:30.106Z,18.10
2023-07-03T07:21:56.996Z,17.90
2023-07-03T07:24:24.010Z,17.70
2023-07-03T07:26:51.639Z,17.70
2023-07-03T07:29:18.510Z,17.90
2023-07-03T07:31:45.253Z,17.90
2023-07-03T07:34:12.133Z,17.80
2023-07-03T07:36:39.970Z,18.00
2023-07-03T07:39:06.766Z,18.10
2023-07-03T07:41:33.548Z,18.00
2023-07-03T07:44:00.362Z,17.70
2023-07-03T07:46:27.731Z,17.60
2023-07-03T07:48:54.520Z,17.60
2023-07-03T07:51:21.283Z,17.50
2023-07-03T07:53:48.004Z,17.50
2023-07-03T07:56:15.415Z,17.60
2023-07-03T07:58:42.159Z,17.50
2023-07-03T08:01:09.133Z,17.50
2023-07-03T08:03:36.587Z,17.60
2023-07-03T08:06:04.125Z,17.60
2023-07-03T08:08:32.298Z,17.70
2023-07-03T08:10:59.426Z,17.70
2023-07-03T08:13:26.139Z,17.80
2023-07-03T08:15:53.442Z,17.90
2023-07-03T08:18:20.984Z,17.80
2023-07-03T08:20:48.083Z,18.00
2023-07-03T08:23:14.959Z,18.00
2023-07-03T08:25:41.664Z,18.10
2023-07-03T08:28:08.630Z,18.10
2023-07-03T08:30:35.635Z,18.20
2023-07-03T08:33:02.739Z,18.20
2023-07-03T08:37:59.617Z,18.50
2023-07-03T08:40:26.724Z,18.60
2023-07-03T08:42:54.563Z,18.70
2023-07-03T08:45:21.273Z,18.90
2023-07-03T08:47:48.163Z,18.60
2023-07-03T08:50:21.504Z,18.70
2023-07-03T08:52:55.037Z,18.50
2023-07-03T08:55:21.870Z,18.10
2023-07-03T08:57:48.598Z,18.10
2023-07-03T09:00:15.329Z,17.90
2023-07-03T09:02:42.581Z,18.10
2023-07-03T09:05:09.440Z,17.90
2023-07-03T09:07:36.211Z,18.10
2023-07-03T09:10:03.732Z,17.90
2023-07-03T09:12:30.517Z,17.90
2023-07-03T09:14:57.282Z,18.00
2023-07-03T09:17:24.228Z,18.40
2023-07-03T09:19:51.120Z,18.20
2023-07-03T09:22:17.981Z,18.20
2023-07-03T09:24:44.840Z,18.50
2023-07-03T09:27:11.786Z,18.50
2023-07-03T09:29:38.767Z,18.60
2023-07-03T09:32:05.501Z,18.60
2023-07-03T09:34:32.306Z,18.70
2023-07-03T09:37:04.583Z,18.70
2023-07-03T09:39:31.307Z,18.60
2023-07-03T09:41:58.102Z,18.60
2023-07-03T09:44:25.362Z,18.60
2023-07-03T09:46:52.171Z,18.70
2023-07-03T09:49:18.884Z,18.80
2023-07-03T09:51:45.635Z,18.80
2023-07-03T09:54:13.350Z,19.00
2023-07-03T09:56:40.360Z,19.00
2023-07-03T09:59:07.087Z,19.00
2023-07-03T10:04:04.410Z,19.30
2023-07-03T10:06:50.238Z,19.50
2023-07-03T10:11:46.651Z,19.70
2023-07-03T10:14:13.477Z,19.70
2023-07-03T10:16:40.230Z,19.60
2023-07-03T10:19:06.955Z,19.60
2023-07-03T10:21:34.955Z,19.60
2023-07-03T10:24:01.671Z,19.70
2023-07-03T10:26:29.606Z,19.60
2023-07-03T10:28:57.622Z,19.80
2023-07-03T10:31:24.413Z,19.80
2023-07-03T10:33:51.589Z,19.90
2023-07-03T10:36:18.309Z,20.10
2023-07-03T10:38:45.004Z,20.10
2023-07-03T10:41:11.711Z,19.70
2023-07-03T10:43:39.214Z,19.70
2023-07-03T10:46:05.925Z,19.90
2023-07-03T10:48:34.095Z,20.00
2023-07-03T10:51:01.434Z,19.90
2023-07-03T10:53:28.094Z,20.20
2023-07-03T10:55:54.876Z,20.40
2023-07-03T10:58:22.517Z,20.60
2023-07-03T11:00:49.231Z,20.40
2023-07-03T11:03:16.366Z,20.40
2023-07-03T11:05:43.195Z,20.30
2023-07-03T11:08:10.026Z,20.30
2023-07-03T11:10:36.711Z,20.00
2023-07-03T11:13:03.608Z,20.30
2023-07-03T11:15:30.310Z,20.40
2023-07-03T11:20:26.762Z,20.40
2023-07-03T11:22:53.583Z,20.40
2023-07-03T11:25:20.478Z,20.60
2023-07-03T11:30:17.707Z,21.20
2023-07-03T11:32:44.582Z,21.50
2023-07-03T11:40:10.664Z,21.30
2023-07-03T11:45:08.053Z,21.00
2023-07-03T11:47:34.838Z,21.10
2023-07-03T11:50:01.567Z,21.20
2023-07-03T11:52:28.497Z,21.30
2023-07-03T11:54:55.222Z,21.50
2023-07-03T11:57:21.866Z,21.50
2023-07-03T11:59:48.572Z,21.60
2023-07-03T12:02:15.558Z,21.80
2023-07-03T12:04:44.724Z,22.30
2023-07-03T12:07:13.442Z,22.20
2023-07-03T12:09:40.489Z,22.30
2023-07-03T12:12:08.606Z,22.20
2023-07-03T12:14:35.329Z,22.50
2023-07-03T12:17:02.307Z,22.70
2023-07-03T12:19:29.190Z,22.50
2023-07-03T12:21:55.919Z,22.90
2023-07-03T12:24:22.792Z,22.90
2023-07-03T12:26:49.506Z,22.90
2023-07-03T12:29:16.468Z,23.40
2023-07-03T12:31:43.154Z,23.70
2023-07-03T12:34:09.867Z,23.70
2023-07-03T12:36:40.193Z,23.60
2023-07-03T12:39:09.320Z,24.00
2023-07-03T12:41:36.051Z,24.00
2023-07-03T12:44:08.739Z,24.30
2023-07-03T12:46:35.957Z,24.50
2023-07-03T12:49:02.679Z,24.10
2023-07-03T12:51:29.357Z,23.90
2023-07-03T12:56:23.304Z,24.20
2023-07-03T12:58:50.024Z,24.30
2023-07-03T13:01:16.968Z,24.10
2023-07-03T13:03:43.794Z,23.60
2023-07-03T13:08:38.017Z,23.20
2023-07-03T13:11:06.683Z,23.00
2023-07-03T13:13:33.686Z,22.70
2023-07-03T13:16:00.721Z,22.40
2023-07-03T13:18:27.413Z,22.40
2023-07-03T13:20:54.118Z,22.10
2023-07-03T13:23:21.455Z,22.00
2023-07-03T13:25:48.302Z,21.90
2023-07-03T13:28:15.221Z,21.80
2023-07-03T13:30:42.158Z,21.80
2023-07-03T13:33:09.153Z,21.70
2023-07-03T13:35:36.018Z,21.30
2023-07-03T13:38:03.316Z,21.40
2023-07-03T13:40:30.039Z,21.50
2023-07-03T13:42:56.810Z,21.40
2023-07-03T13:45:23.576Z,21.40
2023-07-03T13:47:50.280Z,21.50
2023-07-03T13:50:17.116Z,21.30
2023-07-03T13:52:43.852Z,21.00
2023-07-03T13:55:10.604Z,20.80
2023-07-03T13:57:37.451Z,20.20
2023-07-03T14:00:04.252Z,19.80
2023-07-03T14:02:46.731Z,19.10
2023-07-03T14:05:14.736Z,18.80
2023-07-03T14:07:41.634Z,18.40
2023-07-03T14:10:08.503Z,17.80
2023-07-03T14:12:35.246Z,17.50
2023-07-03T14:15:01.939Z,17.10
2023-07-03T14:17:28.738Z,16.80
2023-07-03T14:19:55.677Z,16.50
2023-07-03T14:22:22.427Z,16.40
2023-07-03T14:24:49.744Z,16.40
2023-07-03T14:27:16.910Z,16.60
2023-07-03T14:29:43.607Z,16.50
2023-07-03T14:32:10.437Z,16.60
2023-07-03T14:34:37.225Z,16.60
2023-07-03T14:37:05.352Z,16.60
2023-07-03T14:39:32.148Z,16.70
2023-07-03T14:42:00.160Z,16.70
2023-07-03T14:44:26.863Z,16.70
2023-07-03T14:46:53.683Z,16.70
2023-07-03T14:49:20.907Z,16.60
2023-07-03T14:51:47.591Z,16.40
2023-07-03T14:54:14.381Z,16.50
2023-07-03T14:56:41.170Z,16.50
2023-07-03T14:59:07.924Z,16.50
2023-07-03T15:01:36.112Z,16.70
2023-07-03T15:04:03.113Z,16.80
2023-07-03T15:06:30.074Z,17.10
2023-07-03T15:08:56.835Z,17.50
2023-07-03T15:11:23.554Z,18.10
2023-07-03T15:13:50.343Z,18.40
2023-07-03T15:16:17.226Z,18.60
2023-07-03T15:18:44.021Z,18.60
2023-07-03T15:21:10.958Z,18.70
2023-07-03T15:23:37.720Z,18.90
2023-07-03T15:26:06.621Z,19.10
2023-07-03T15:28:33.617Z,19.10
2023-07-03T15:31:00.839Z,19.10
2023-07-03T15:33:27.527Z,18.90
2023-07-03T15:35:54.336Z,18.90
2023-07-03T15:38:21.336Z,18.90
2023-07-03T15:40:48.021Z,18.90
2023-07-03T15:43:15.119Z,18.90
2023-07-03T15:45:41.926Z,18.80
2023-07-03T15:48:08.780Z,18.60
2023-07-03T15:50:35.490Z,18.70
2023-07-03T15:53:02.648Z,18.80
2023-07-03T15:55:29.406Z,18.80
2023-07-03T15:57:56.094Z,18.90
2023-07-03T16:00:22.906Z,18.90
2023-07-03T16:02:49.712Z,19.00
2023-07-03T16:05:16.848Z,19.30
2023-07-03T16:07:43.573Z,19.60
2023-07-03T16:12:37.608Z,19.90
2023-07-03T16:15:04.775Z,19.90
2023-07-03T16:17:31.661Z,19.90
2023-07-03T16:19:58.544Z,19.90
2023-07-03T16:22:25.392Z,19.70
2023-07-03T16:24:52.519Z,19.70
2023-07-03T16:27:19.422Z,19.40
2023-07-03T16:29:46.180Z,19.70
2023-07-03T16:32:12.935Z,20.10
2023-07-03T16:34:39.598Z,20.30
2023-07-03T16:37:06.617Z,20.30
2023-07-03T16:39:34.422Z,20.10
2023-07-03T16:42:01.258Z,20.10
2023-07-03T16:44:28.127Z,20.10
2023-07-03T16:46:54.946Z,19.90
2023-07-03T16:49:21.668Z,19.90
2023-07-03T16:51:48.360Z,20.00
2023-07-03T16:54:15.117Z,19.90
2023-07-03T16:56:41.902Z,19.90
2023-07-03T16:59:09.306Z,19.80
2023-07-03T17:01:36.576Z,20.10
2023-07-03T17:04:03.488Z,20.40
2023-07-03T17:06:34.069Z,20.90
2023-07-03T17:11:28.176Z,21.30
2023-07-03T17:13:55.538Z,21.30
2023-07-03T17:16:23.022Z,21.00
2023-07-03T17:18:50.053Z,21.10
2023-07-03T17:21:16.852Z,20.70
2023-07-03T17:23:44.063Z,20.40
2023-07-03T17:26:10.795Z,20.10
2023-07-03T17:28:37.535Z,20.10
2023-07-03T17:31:04.343Z,19.90
2023-07-03T17:33:31.100Z,19.80
2023-07-03T17:35:59.322Z,19.80
2023-07-03T17:38:26.200Z,19.90
2023-07-03T17:40:53.085Z,19.70
2023-07-03T17:43:23.838Z,19.70
2023-07-03T17:45:51.412Z,19.70
2023-07-03T17:48:18.469Z,19.70
2023-07-03T17:50:46.630Z,19.60
2023-07-03T17:53:14.727Z,19.60
2023-07-03T17:55:42.103Z,19.60
2023-07-03T17:58:08.942Z,19.60
2023-07-03T18:00:35.666Z,19.60
2023-07-03T18:03:02.874Z,19.50
2023-07-03T18:05:30.676Z,19.50
2023-07-03T18:07:57.373Z,19.50
2023-07-03T18:10:24.916Z,19.70
2023-07-03T18:12:51.720Z,19.90
2023-07-03T18:15:18.464Z,20.10
2023-07-03T18:17:45.561Z,20.10
2023-07-03T18:20:12.380Z,20.20
2023-07-03T18:22:39.307Z,20.30
2023-07-03T18:25:06.917Z,20.00
2023-07-03T18:27:34.013Z,20.10
2023-07-03T18:30:00.785Z,19.90
2023-07-03T18:32:27.994Z,19.80
2023-07-03T18:34:54.717Z,19.40
2023-07-03T18:37:21.482Z,19.30
2023-07-03T18:39:48.220Z,19.20
2023-07-03T18:42:14.970Z,18.70
2023-07-03T18:44:41.666Z,18.60
2023-07-03T18:47:10.688Z,18.60
2023-07-03T18:49:37.411Z,18.60
2023-07-03T18:52:04.176Z,18.40
2023-07-03T18:54:30.925Z,18.20
2023-07-03T18:56:58.122Z,18.10
2023-07-03T18:59:25.369Z,18.00
2023-07-03T19:01:52.127Z,17.90
2023-07-03T19:04:18.923Z,18.00
2023-07-03T19:06:45.765Z,18.00
2023-07-03T19:09:13.112Z,17.90
2023-07-03T19:11:43.891Z,17.80
2023-07-03T19:14:10.675Z,17.90
2023-07-03T19:16:37.597Z,17.70
2023-07-03T19:19:04.441Z,17.70
2023-07-03T19:21:31.627Z,17.70
2023-07-03T19:24:01.828Z,17.60
2023-07-03T19:26:30.678Z,17.60
2023-07-03T19:28:57.481Z,17.70
2023-07-03T19:31:24.435Z,17.60
2023-07-03T19:33:52.121Z,17.60
2023-07-03T19:36:20.986Z,17.40
2023-07-03T19:38:47.841Z,17.50
2023-07-03T19:41:17.675Z,17.30
2023-07-03T19:43:44.544Z,17.30
2023-07-03T19:46:11.429Z,17.10
2023-07-03T19:48:38.517Z,17.20
2023-07-03T19:51:05.502Z,17.20
2023-07-03T19:53:32.494Z,17.20
2023-07-03T19:55:59.518Z,17.30
2023-07-03T19:58:26.719Z,17.20
2023-07-03T20:00:53.885Z,17.20
2023-07-03T20:03:20.903Z,17.10
2023-07-03T20:05:48.875Z,17.10
2023-07-03T20:08:15.715Z,17.10
2023-07-03T20:10:42.658Z,17.00
2023-07-03T20:13:09.433Z,17.10
2023-07-03T20:15:36.201Z,17.00
2023-07-03T20:18:03.517Z,16.90
2023-07-03T20:20:30.403Z,16.90
2023-07-03T20:22:57.193Z,17.00
2023-07-03T20:25:24.571Z,16.90
2023-07-03T20:27:53.476Z,16.90
2023-07-03T20:30:20.193Z,16.80
2023-07-03T20:32:49.275Z,16.80
2023-07-03T20:35:16.615Z,16.80
2023-07-03T20:37:43.815Z,16.80
2023-07-03T20:40:10.597Z,16.70
2023-07-03T20:42:37.398Z,16.60
2023-07-03T20:45:06.701Z,16.60
2023-07-03T20:47:33.988Z,16.50
2023-07-03T20:50:01.242Z,16.50
2023-07-03T20:52:28.693Z,16.40
2023-07-03T20:55:05.932Z,16.40
2023-07-03T20:57:34.598Z,16.30
2023-07-03T21:00:01.669Z,16.30
2023-07-03T21:02:29.434Z,16.20
2023-07-03T21:04:56.845Z,16.20
2023-07-03T21:07:23.833Z,16.20
2023-07-03T21:09:50.586Z,16.10
2023-07-03T21:12:17.322Z,16.10
2023-07-03T21:14:44.171Z,16.10
2023-07-03T21:17:12.565Z,16.10
2023-07-03T21:19:39.479Z,16.10
2023-07-03T21:22:06.232Z,16.10
2023-07-03T21:24:33.056Z,16.10
2023-07-03T21:26:59.944Z,16.00
2023-07-03T21:29:26.701Z,16.00
2023-07-03T21:31:53.535Z,16.10
2023-07-03T21:34:20.383Z,16.10
2023-07-03T21:36:47.512Z,16.10
2023-07-03T21:39:14.419Z,16.10
2023-07-03T21:41:43.307Z,16.00
2023-07-03T21:44:10.051Z,16.00
2023-07-03T21:46:36.974Z,16.00
2023-07-03T21:49:04.507Z,16.00
2023-07-03T21:51:31.324Z,15.90
2023-07-03T21:53:58.067Z,15.90
2023-07-03T21:56:24.886Z,15.90
2023-07-03T21:58:51.667Z,15.90
2023-07-03T22:01:18.498Z,15.90
2023-07-03T22:03:45.477Z,15.90
2023-07-03T22:06:12.364Z,15.90
2023-07-03T22:08:39.137Z,15.90
2023-07-03T22:11:06.110Z,16.00
2023-07-03T22:13:32.938Z,15.80
2023-07-03T22:16:00.357Z,15.80
2023-07-03T22:18:27.214Z,15.80
2023-07-03T22:20:54.193Z,15.80
2023-07-03T22:23:30.925Z,15.80
2023-07-03T22:28:26.925Z,15.70
2023-07-03T22:30:53.826Z,15.60
2023-07-03T22:33:20.592Z,15.60
2023-07-03T22:35:50.333Z,15.50
2023-07-03T22:38:17.317Z,15.50
2023-07-03T22:40:44.163Z,15.50
2023-07-03T22:43:10.921Z,15.50
2023-07-03T22:45:37.616Z,15.50
2023-07-03T22:48:04.503Z,15.40
2023-07-03T22:50:31.337Z,15.40
2023-07-03T22:52:58.899Z,15.40
2023-07-03T22:55:28.484Z,15.40
2023-07-03T22:57:55.211Z,15.50
2023-07-03T23:00:22.742Z,15.40
2023-07-03T23:02:50.095Z,15.40
2023-07-03T23:05:16.995Z,15.40
2023-07-03T23:07:43.807Z,15.50
2023-07-03T23:10:10.580Z,15.40
2023-07-03T23:12:37.449Z,15.30
2023-07-03T23:15:04.279Z,15.40
2023-07-03T23:17:31.169Z,15.40
2023-07-03T23:19:57.943Z,15.30
2023-07-03T23:22:24.785Z,15.30
2023-07-03T23:24:51.568Z,15.30
2023-07-03T23:27:21.023Z,15.30
2023-07-03T23:29:47.883Z,15.20
2023-07-03T23:32:14.702Z,15.20
2023-07-03T23:34:41.776Z,15.20
2023-07-03T23:37:11.631Z,15.20
2023-07-03T23:39:38.450Z,15.20
2023-07-03T23:42:06.945Z,15.20
2023-07-03T23:44:33.718Z,15.20
2023-07-03T23:47:00.559Z,15.20
2023-07-03T23:49:27.556Z,15.20
2023-07-03T23:51:54.448Z,15.20
2023-07-03T23:54:23.618Z,15.20
2023-07-03T23:56:50.446Z,15.10
2023-07-03T23:59:23.333Z,15.10
